Time;durP1;ratioP1;P1;durP2;ratioP2;P2;SDS_P1;SDS_P2;PMS_P1;PMS_P2;Temp;Humidity;BMP_temperature;BMP_pressure;BME280_temperature;BME280_humidity;BME280_pressure;Samples;Min_cycle;Max_cycle;Signal;HPM_P1;HPM_P2
2021/09/09 00:00:52;;;;;;;;;;;13.60;99.90;;;;;;8294574;28;19932;-64
2021/09/09 00:04:53;;;;;;;;;;;13.70;99.90;;;;;;8294475;28;19920;-64
2021/09/09 00:08:53;;;;;;;;;;;13.40;99.90;;;;;;8294592;28;20313;-64
2021/09/09 00:12:54;;;;;;;;;;;13.40;99.90;;;;;;8276627;28;19913;-64
2021/09/09 00:16:54;;;;;;;;;;;13.40;99.90;;;;;;8293881;28;19936;-64
2021/09/09 00:20:55;;;;;;;;;;;13.10;99.90;;;;;;8276495;28;20365;-64
2021/09/09 00:24:55;;;;;;;;;;;12.90;99.90;;;;;;8293412;28;20618;-64
2021/09/09 00:28:56;;;;;;;;;;;13.00;99.90;;;;;;8294110;28;19948;-64
2021/09/09 00:32:56;;;;;;;;;;;13.00;99.90;;;;;;8294085;28;19905;-64
2021/09/09 00:36:57;;;;;;;;;;;13.00;99.90;;;;;;8293572;28;20413;-64
2021/09/09 00:40:57;;;;;;;;;;;12.80;99.90;;;;;;8293551;28;19955;-64
2021/09/09 00:44:57;;;;;;;;;;;12.80;99.90;;;;;;8293683;28;19912;-64
2021/09/09 00:48:59;;;;;;;;;;;13.10;99.90;;;;;;8293729;28;19906;-64
2021/09/09 00:53:00;;;;;;;;;;;13.10;99.90;;;;;;8276003;28;19921;-65
2021/09/09 00:57:02;;;;;;;;;;;13.20;99.90;;;;;;8292819;28;19916;-64
2021/09/09 01:01:03;;;;;;;;;;;12.90;99.90;;;;;;8293316;28;19920;-64
2021/09/09 01:05:04;;;;;;;;;;;12.70;99.90;;;;;;8293184;28;19909;-64
2021/09/09 01:09:04;;;;;;;;;;;12.60;99.90;;;;;;8293436;28;20378;-64
2021/09/09 01:13:09;;;;;;;;;;;13.00;99.90;;;;;;8293086;28;19905;-64
2021/09/09 01:17:10;;;;;;;;;;;12.70;99.90;;;;;;8292684;28;19917;-64
2021/09/09 01:21:10;;;;;;;;;;;12.70;99.90;;;;;;8293031;28;20000;-64
2021/09/09 01:25:11;;;;;;;;;;;12.50;99.90;;;;;;8292522;28;19912;-64
2021/09/09 01:29:11;;;;;;;;;;;12.30;99.90;;;;;;8292822;28;19909;-64
2021/09/09 01:33:12;;;;;;;;;;;12.20;99.90;;;;;;8293988;28;19906;-64
2021/09/09 01:37:12;;;;;;;;;;;12.50;99.90;;;;;;8281094;28;20270;-64
2021/09/09 01:41:13;;;;;;;;;;;12.40;99.90;;;;;;8280734;28;19936;-64
2021/09/09 01:45:13;;;;;;;;;;;12.50;99.90;;;;;;8298684;28;20271;-64
2021/09/09 01:49:14;;;;;;;;;;;12.40;99.90;;;;;;8298400;28;20057;-64
2021/09/09 01:53:15;;;;;;;;;;;12.40;99.90;;;;;;8298044;28;20006;-64
2021/09/09 01:57:15;;;;;;;;;;;12.40;99.90;;;;;;8297933;28;19909;-64
2021/09/09 02:01:16;;;;;;;;;;;12.30;99.90;;;;;;8298013;28;19963;-64
2021/09/09 02:05:17;;;;;;;;;;;12.30;99.90;;;;;;8297904;28;19905;-64
2021/09/09 02:09:17;;;;;;;;;;;12.30;99.90;;;;;;8297967;28;20362;-64
2021/09/09 02:13:18;;;;;;;;;;;12.20;99.90;;;;;;8297717;28;19913;-64
2021/09/09 02:17:18;;;;;;;;;;;12.30;99.90;;;;;;8279985;28;19916;-65
2021/09/09 02:21:19;;;;;;;;;;;12.10;99.90;;;;;;8296915;28;19912;-64
2021/09/09 02:25:19;;;;;;;;;;;12.50;99.90;;;;;;8278722;28;19906;-64
2021/09/09 02:29:19;;;;;;;;;;;12.70;99.90;;;;;;8296992;28;19964;-64
2021/09/09 02:33:20;;;;;;;;;;;12.40;99.90;;;;;;8279546;28;19909;-64
2021/09/09 02:37:21;;;;;;;;;;;12.30;99.90;;;;;;8296760;28;19910;-64
2021/09/09 02:41:21;;;;;;;;;;;12.70;99.90;;;;;;8279270;28;19905;-64
2021/09/09 02:45:23;;;;;;;;;;;12.50;99.90;;;;;;8295371;28;19906;-64
2021/09/09 02:49:23;;;;;;;;;;;12.40;99.90;;;;;;8295758;28;19905;-64
2021/09/09 02:53:24;;;;;;;;;;;12.30;99.90;;;;;;8318996;23;20015;-67
2021/09/09 02:57:24;;;;;;;;;;;12.30;99.90;;;;;;8294427;28;20300;-67
2021/09/09 03:01:25;;;;;;;;;;;12.60;99.90;;;;;;8295041;28;19916;-67
2021/09/09 03:05:25;;;;;;;;;;;12.50;99.90;;;;;;8296042;28;20377;-67
2021/09/09 03:09:26;;;;;;;;;;;12.50;99.90;;;;;;8278352;28;19912;-67
2021/09/09 03:13:26;;;;;;;;;;;12.50;99.90;;;;;;8295978;28;19905;-68
2021/09/09 03:17:26;;;;;;;;;;;12.50;99.90;;;;;;8295672;28;19909;-67
2021/09/09 03:21:27;;;;;;;;;;;12.60;99.90;;;;;;8295639;28;20016;-67
2021/09/09 03:25:27;;;;;;;;;;;12.80;99.90;;;;;;8295063;28;20039;-67
2021/09/09 03:29:28;;;;;;;;;;;12.80;99.90;;;;;;8295574;28;19905;-67
2021/09/09 03:33:28;;;;;;;;;;;12.80;99.90;;;;;;8295304;28;20285;-67
2021/09/09 03:37:29;;;;;;;;;;;12.70;99.90;;;;;;8294415;28;20369;-67
2021/09/09 03:41:29;;;;;;;;;;;12.90;99.90;;;;;;8292885;28;19955;-67
2021/09/09 03:45:30;;;;;;;;;;;12.80;99.90;;;;;;8292965;28;19917;-67
2021/09/09 03:49:30;;;;;;;;;;;12.70;99.90;;;;;;8293495;28;20011;-67
2021/09/09 03:53:31;;;;;;;;;;;12.90;99.90;;;;;;8293390;28;20374;-67
2021/09/09 03:57:31;;;;;;;;;;;13.10;99.90;;;;;;8293275;28;20400;-67
2021/09/09 04:01:32;;;;;;;;;;;13.10;99.90;;;;;;8294374;28;19914;-67
2021/09/09 04:05:32;;;;;;;;;;;12.90;99.90;;;;;;8294038;28;20004;-67
2021/09/09 04:09:33;;;;;;;;;;;12.80;99.90;;;;;;8293235;28;19913;-68
2021/09/09 04:13:33;;;;;;;;;;;12.70;99.90;;;;;;8286023;28;19909;-68
2021/09/09 04:17:34;;;;;;;;;;;12.60;99.90;;;;;;8291553;28;19913;-68
2021/09/09 04:21:35;;;;;;;;;;;12.50;99.90;;;;;;8293009;28;19909;-67
2021/09/09 04:25:35;;;;;;;;;;;12.50;99.90;;;;;;8293607;28;19924;-67
2021/09/09 04:29:36;;;;;;;;;;;12.80;99.90;;;;;;8293582;28;19906;-67
2021/09/09 04:33:36;;;;;;;;;;;12.80;99.90;;;;;;8293906;28;19956;-68
2021/09/09 04:37:37;;;;;;;;;;;12.70;99.90;;;;;;8293011;28;19956;-68
2021/09/09 04:41:38;;;;;;;;;;;12.70;99.90;;;;;;8293355;28;19917;-67
2021/09/09 04:45:38;;;;;;;;;;;13.10;99.90;;;;;;8275891;28;19905;-67
2021/09/09 04:49:38;;;;;;;;;;;12.90;99.90;;;;;;8292240;28;19976;-67
2021/09/09 04:53:39;;;;;;;;;;;12.60;99.90;;;;;;8292501;28;20357;-67
2021/09/09 04:57:39;;;;;;;;;;;12.80;99.90;;;;;;8292113;28;20346;-67
2021/09/09 05:01:40;;;;;;;;;;;12.90;99.90;;;;;;8275397;28;19949;-67
2021/09/09 05:05:40;;;;;;;;;;;12.70;99.90;;;;;;8292661;28;19905;-67
2021/09/09 05:09:41;;;;;;;;;;;12.80;99.90;;;;;;8279301;28;19981;-67
2021/09/09 05:13:41;;;;;;;;;;;12.80;99.90;;;;;;8299573;28;20415;-67
2021/09/09 05:17:42;;;;;;;;;;;12.90;99.90;;;;;;8298467;28;20309;-67
2021/09/09 05:21:42;;;;;;;;;;;13.10;99.90;;;;;;8299000;28;20281;-67
2021/09/09 05:25:43;;;;;;;;;;;13.10;99.90;;;;;;8299200;28;20412;-67
2021/09/09 05:29:43;;;;;;;;;;;12.90;99.90;;;;;;8299302;28;20266;-67
2021/09/09 05:33:44;;;;;;;;;;;13.00;99.90;;;;;;8299240;28;20444;-67
2021/09/09 05:37:44;;;;;;;;;;;12.90;99.90;;;;;;8298327;28;20373;-67
2021/09/09 05:41:45;;;;;;;;;;;12.70;99.90;;;;;;8298662;28;19916;-67
2021/09/09 05:45:45;;;;;;;;;;;12.80;99.90;;;;;;8298748;28;19945;-67
2021/09/09 05:49:46;;;;;;;;;;;13.00;99.90;;;;;;8298528;28;19905;-67
2021/09/09 05:53:47;;;;;;;;;;;12.90;99.90;;;;;;8298170;28;20279;-67
2021/09/09 05:57:47;;;;;;;;;;;13.00;99.90;;;;;;8297779;28;19916;-67
2021/09/09 06:01:49;;;;;;;;;;;13.30;99.90;;;;;;8298053;28;19909;-67
2021/09/09 06:05:52;;;;;;;;;;;13.60;99.90;;;;;;8279998;28;19905;-67
2021/09/09 06:09:53;;;;;;;;;;;13.90;99.90;;;;;;8297995;28;19954;-67
2021/09/09 06:13:53;;;;;;;;;;;14.10;99.90;;;;;;8297719;28;20007;-67
2021/09/09 06:17:53;;;;;;;;;;;14.30;99.90;;;;;;8297180;28;19909;-67
2021/09/09 06:21:54;;;;;;;;;;;14.50;99.90;;;;;;8296569;28;19912;-67
2021/09/09 06:25:54;;;;;;;;;;;14.70;99.90;;;;;;8297447;28;19906;-67
2021/09/09 06:29:55;;;;;;;;;;;15.00;99.90;;;;;;8297628;28;19912;-67
2021/09/09 06:33:55;;;;;;;;;;;15.20;99.90;;;;;;8297052;28;19909;-67
2021/09/09 06:37:56;;;;;;;;;;;15.40;99.90;;;;;;8279077;28;19975;-67
2021/09/09 06:41:57;;;;;;;;;;;15.60;99.90;;;;;;8297499;28;19929;-67
2021/09/09 06:45:57;;;;;;;;;;;15.90;99.90;;;;;;8297187;28;19906;-67
2021/09/09 06:49:58;;;;;;;;;;;16.10;99.90;;;;;;8296670;28;19912;-68
2021/09/09 06:53:58;;;;;;;;;;;16.40;99.90;;;;;;8278797;28;20251;-67
2021/09/09 06:57:59;;;;;;;;;;;16.60;99.90;;;;;;8277794;28;19913;-67
2021/09/09 07:02:00;;;;;;;;;;;16.90;99.90;;;;;;8295197;28;19906;-68
2021/09/09 07:06:00;;;;;;;;;;;17.50;99.90;;;;;;8294976;28;19917;-67
2021/09/09 07:10:01;;;;;;;;;;;18.10;99.90;;;;;;8296162;28;20058;-66
2021/09/09 07:14:01;;;;;;;;;;;19.00;99.90;;;;;;8295189;28;19906;-66
2021/09/09 07:18:01;;;;;;;;;;;19.50;99.90;;;;;;8295123;28;19910;-66
2021/09/09 07:22:02;;;;;;;;;;;20.00;99.90;;;;;;8295597;28;19905;-66
2021/09/09 07:26:03;;;;;;;;;;;20.40;99.90;;;;;;8278235;28;19916;-66
2021/09/09 07:30:04;;;;;;;;;;;20.70;99.90;;;;;;8295546;28;20278;-66
2021/09/09 07:34:04;;;;;;;;;;;20.80;99.90;;;;;;8277454;28;19905;-66
2021/09/09 07:38:05;;;;;;;;;;;21.00;99.90;;;;;;8295567;28;20361;-66
2021/09/09 07:42:05;;;;;;;;;;;21.10;99.90;;;;;;8277462;28;20374;-66
2021/09/09 07:46:06;;;;;;;;;;;21.20;99.90;;;;;;8294815;28;19929;-66
2021/09/09 07:50:08;;;;;;;;;;;21.30;99.90;;;;;;8277365;28;20332;-66
2021/09/09 07:54:09;;;;;;;;;;;21.50;99.90;;;;;;8294753;28;19913;-66
2021/09/09 07:58:09;;;;;;;;;;;21.70;99.90;;;;;;8294000;28;19955;-66
2021/09/09 08:02:10;;;;;;;;;;;21.80;99.90;;;;;;8273753;28;20153;-66
2021/09/09 08:06:10;;;;;;;;;;;22.10;99.90;;;;;;8276374;28;19905;-66
2021/09/09 08:10:13;;;;;;;;;;;22.50;99.90;;;;;;8294188;28;19906;-66
2021/09/09 08:14:14;;;;;;;;;;;22.50;99.90;;;;;;8294169;28;19916;-66
2021/09/09 08:18:14;;;;;;;;;;;22.40;99.90;;;;;;8293490;28;19917;-66
2021/09/09 08:22:15;;;;;;;;;;;22.50;99.90;;;;;;8289719;28;19914;-66
2021/09/09 08:26:15;;;;;;;;;;;22.60;99.90;;;;;;8273120;28;20000;-66
2021/09/09 08:30:16;;;;;;;;;;;22.70;99.90;;;;;;8292429;28;20381;-67
2021/09/09 08:34:16;;;;;;;;;;;22.80;99.90;;;;;;8275246;28;19909;-67
2021/09/09 08:38:17;;;;;;;;;;;23.00;99.90;;;;;;8292724;28;19913;-67
2021/09/09 08:42:18;;;;;;;;;;;23.30;99.90;;;;;;8292238;28;19913;-67
2021/09/09 08:46:19;;;;;;;;;;;23.30;99.90;;;;;;8290071;28;19936;-67
2021/09/09 08:50:19;;;;;;;;;;;23.10;99.90;;;;;;8290343;28;19905;-67
2021/09/09 08:54:20;;;;;;;;;;;22.80;99.90;;;;;;8313819;23;20013;-63
2021/09/09 08:58:21;;;;;;;;;;;23.00;99.90;;;;;;8289848;28;19913;-63
2021/09/09 09:02:21;;;;;;;;;;;23.10;99.90;;;;;;8291178;28;19967;-64
2021/09/09 09:06:22;;;;;;;;;;;22.90;99.90;;;;;;8292080;28;19959;-64
2021/09/09 09:10:22;;;;;;;;;;;22.80;99.90;;;;;;8292861;28;19910;-64
2021/09/09 09:14:25;;;;;;;;;;;23.20;99.90;;;;;;8275422;28;19905;-64
2021/09/09 09:18:26;;;;;;;;;;;23.60;99.90;;;;;;8275246;28;19910;-63
2021/09/09 09:22:30;;;;;;;;;;;23.40;99.90;;;;;;8292440;28;19936;-63
2021/09/09 09:26:31;;;;;;;;;;;23.10;99.90;;;;;;8273218;28;20293;-63
2021/09/09 09:30:31;;;;;;;;;;;23.30;99.90;;;;;;8292269;28;19912;-64
2021/09/09 09:34:32;;;;;;;;;;;23.60;99.90;;;;;;8293075;28;19921;-63
2021/09/09 09:38:33;;;;;;;;;;;23.90;99.90;;;;;;8292906;28;20004;-63
2021/09/09 09:42:33;;;;;;;;;;;23.80;99.90;;;;;;8292744;28;19905;-63
2021/09/09 09:46:36;;;;;;;;;;;23.80;99.90;;;;;;8290964;28;20310;-63
2021/09/09 09:50:38;;;;;;;;;;;24.30;99.90;;;;;;8274340;28;19910;-64
2021/09/09 09:54:47;;;;;;;;;;;24.90;99.90;;;;;;8291865;28;19920;-64
2021/09/09 09:58:47;;;;;;;;;;;25.00;99.90;;;;;;8297584;28;20529;-63
2021/09/09 10:02:48;;;;;;;;;;;25.10;99.90;;;;;;8296004;28;19909;-63
2021/09/09 10:06:49;;;;;;;;;;;25.10;99.90;;;;;;8296818;28;19935;-63
2021/09/09 10:10:50;;;;;;;;;;;25.60;99.90;;;;;;8297029;28;19917;-63
2021/09/09 10:14:51;;;;;;;;;;;26.00;99.90;;;;;;8297257;28;19917;-64
2021/09/09 10:18:52;;;;;;;;;;;25.70;99.90;;;;;;8297653;28;19909;-63
2021/09/09 10:23:05;;;;;;;;;;;25.30;99.90;;;;;;8297382;28;19949;-63
2021/09/09 10:27:21;;;;;;;;;;;25.50;99.90;;;;;;8296039;28;19909;-64
2021/09/09 10:31:23;;;;;;;;;;;25.90;99.90;;;;;;8279190;28;19909;-64
2021/09/09 10:35:30;;;;;;;;;;;25.70;99.90;;;;;;8296396;28;19916;-63
2021/09/09 10:39:33;;;;;;;;;;;25.80;99.90;;;;;;8294398;28;19913;-63
2021/09/09 10:43:34;;;;;;;;;;;25.80;99.90;;;;;;8295503;28;19916;-63
2021/09/09 10:47:53;;;;;;;;;;;26.00;99.90;;;;;;8273886;28;20004;-64
2021/09/09 10:52:06;;;;;;;;;;;26.20;99.90;;;;;;8295556;28;20281;-63
2021/09/09 10:56:08;;;;;;;;;;;26.50;99.80;;;;;;8296129;28;19957;-64
2021/09/09 11:00:09;;;;;;;;;;;;;;;;;;8295761;28;20282;-64
2021/09/09 11:04:29;;;;;;;;;;;29.60;99.90;;;;;;8277935;28;19909;-63
2021/09/09 11:08:30;;;;;;;;;;;30.90;91.80;;;;;;8292850;28;19909;-64
2021/09/09 11:12:34;;;;;;;;;;;32.20;81.70;;;;;;8294816;28;19956;-63
2021/09/09 11:16:36;;;;;;;;;;;30.60;80.50;;;;;;8295623;28;20353;-63
2021/09/09 11:20:36;;;;;;;;;;;30.40;81.90;;;;;;8294456;28;19909;-64
2021/09/09 11:24:37;;;;;;;;;;;32.10;75.60;;;;;;8277790;28;19915;-64
2021/09/09 11:28:38;;;;;;;;;;;32.60;69.90;;;;;;8294801;28;19967;-64
2021/09/09 11:32:38;;;;;;;;;;;33.00;68.80;;;;;;8277074;28;19909;-64
2021/09/09 11:36:43;;;;;;;;;;;33.60;64.20;;;;;;8294830;28;19928;-64
2021/09/09 11:40:43;;;;;;;;;;;34.50;60.50;;;;;;8294706;28;20305;-64
2021/09/09 11:44:44;;;;;;;;;;;34.40;59.60;;;;;;8294888;28;19912;-65
2021/09/09 11:48:50;;;;;;;;;;;35.00;57.60;;;;;;8294517;28;20334;-64
2021/09/09 11:53:00;;;;;;;;;;;34.10;56.10;;;;;;8294522;28;19912;-64
2021/09/09 11:57:05;;;;;;;;;;;33.80;56.50;;;;;;8293732;28;19917;-63
2021/09/09 12:01:06;;;;;;;;;;;33.90;56.10;;;;;;8294626;28;19912;-64
2021/09/09 12:05:08;;;;;;;;;;;30.90;61.50;;;;;;8292794;28;20393;-64
2021/09/09 12:09:09;;;;;;;;;;;28.90;67.30;;;;;;8293438;28;20423;-64
2021/09/09 12:13:10;;;;;;;;;;;28.40;69.20;;;;;;8271186;28;19910;-64
2021/09/09 12:17:11;;;;;;;;;;;27.80;70.90;;;;;;8290274;28;19923;-64
2021/09/09 12:21:19;;;;;;;;;;;30.10;69.70;;;;;;8291105;28;20316;-63
2021/09/09 12:25:20;;;;;;;;;;;32.00;61.60;;;;;;8292913;28;19905;-64
2021/09/09 12:29:20;;;;;;;;;;;31.80;62.90;;;;;;8294125;28;19907;-64
2021/09/09 12:33:23;;;;;;;;;;;35.30;57.20;;;;;;8293838;28;19913;-64
2021/09/09 12:37:24;;;;;;;;;;;34.40;54.20;;;;;;8275448;28;20008;-64
2021/09/09 12:41:27;;;;;;;;;;;32.20;59.00;;;;;;8293823;28;19909;-64
2021/09/09 12:45:40;;;;;;;;;;;32.30;57.90;;;;;;8274925;28;19983;-64
2021/09/09 12:49:42;;;;;;;;;;;33.00;57.40;;;;;;8293274;28;19905;-64
2021/09/09 12:53:42;;;;;;;;;;;33.20;59.30;;;;;;8293019;28;19919;-64
2021/09/09 12:57:43;;;;;;;;;;;32.30;57.70;;;;;;8274360;28;20278;-63
2021/09/09 13:01:43;;;;;;;;;;;30.10;63.00;;;;;;8291899;28;20266;-64
2021/09/09 13:05:44;;;;;;;;;;;29.00;66.60;;;;;;8291216;28;20582;-64
2021/09/09 13:09:44;;;;;;;;;;;28.10;68.70;;;;;;8291150;28;19932;-64
2021/09/09 13:13:45;;;;;;;;;;;29.80;68.00;;;;;;8290955;28;20289;-64
2021/09/09 13:17:45;;;;;;;;;;;32.30;60.00;;;;;;8290910;28;19913;-63
2021/09/09 13:21:46;;;;;;;;;;;31.30;63.00;;;;;;8275228;28;19963;-64
2021/09/09 13:25:47;;;;;;;;;;;31.50;62.30;;;;;;8291647;28;20451;-64
2021/09/09 13:29:48;;;;;;;;;;;30.50;63.70;;;;;;8277339;28;19909;-63
2021/09/09 13:33:49;;;;;;;;;;;30.70;61.50;;;;;;8298008;28;19909;-64
2021/09/09 13:37:49;;;;;;;;;;;32.30;60.00;;;;;;8298711;28;19963;-64
2021/09/09 13:41:50;;;;;;;;;;;32.40;59.50;;;;;;8296245;28;19940;-64
2021/09/09 13:45:50;;;;;;;;;;;32.00;60.50;;;;;;8294824;28;20419;-64
2021/09/09 13:49:51;;;;;;;;;;;34.00;56.70;;;;;;8295864;28;19967;-64
2021/09/09 13:53:51;;;;;;;;;;;36.40;54.00;;;;;;8296311;28;19916;-65
2021/09/09 13:57:52;;;;;;;;;;;37.80;51.90;;;;;;8296436;28;19960;-64
2021/09/09 14:01:52;;;;;;;;;;;36.90;49.00;;;;;;8295230;28;20366;-64
2021/09/09 14:05:53;;;;;;;;;;;37.70;48.50;;;;;;8296507;28;19955;-64
2021/09/09 14:09:53;;;;;;;;;;;38.70;46.60;;;;;;8279098;28;19924;-64
2021/09/09 14:13:54;;;;;;;;;;;37.30;48.80;;;;;;8297449;28;19951;-64
2021/09/09 14:17:54;;;;;;;;;;;36.30;48.00;;;;;;8296917;28;20416;-64
2021/09/09 14:21:55;;;;;;;;;;;37.60;47.60;;;;;;8296005;28;20000;-65
2021/09/09 14:25:55;;;;;;;;;;;37.80;45.10;;;;;;8293984;28;19991;-64
2021/09/09 14:29:57;;;;;;;;;;;34.10;52.10;;;;;;8275173;28;19909;-64
2021/09/09 14:33:57;;;;;;;;;;;33.50;54.60;;;;;;8293287;28;19923;-65
2021/09/09 14:37:57;;;;;;;;;;;37.00;50.10;;;;;;8293735;28;20313;-64
2021/09/09 14:41:58;;;;;;;;;;;37.40;48.50;;;;;;8295557;28;19910;-64
2021/09/09 14:45:58;;;;;;;;;;;37.10;48.00;;;;;;8296082;28;19920;-64
2021/09/09 14:49:59;;;;;;;;;;;36.40;49.70;;;;;;8295576;28;19967;-64
2021/09/09 14:53:59;;;;;;;;;;;37.70;48.90;;;;;;8295814;28;19913;-65
2021/09/09 14:58:00;;;;;;;;;;;38.50;46.80;;;;;;8295303;28;19925;-66
2021/09/09 15:02:00;;;;;;;;;;;37.20;48.40;;;;;;8295671;28;20448;-66
2021/09/09 15:06:01;;;;;;;;;;;36.70;49.60;;;;;;8294490;28;19916;-66
2021/09/09 15:10:01;;;;;;;;;;;36.30;50.60;;;;;;8295579;28;19909;-66
2021/09/09 15:14:03;;;;;;;;;;;36.30;50.50;;;;;;8295965;28;19905;-66
2021/09/09 15:18:03;;;;;;;;;;;36.30;50.90;;;;;;8294724;28;19914;-66
2021/09/09 15:22:04;;;;;;;;;;;35.90;46.40;;;;;;8294194;28;20313;-66
2021/09/09 15:26:04;;;;;;;;;;;34.40;48.10;;;;;;8295182;28;20012;-66
2021/09/09 15:30:06;;;;;;;;;;;34.20;49.40;;;;;;8278278;28;19920;-66
2021/09/09 15:34:07;;;;;;;;;;;34.60;47.80;;;;;;8294430;28;20382;-66
2021/09/09 15:38:07;;;;;;;;;;;35.00;46.80;;;;;;8294353;28;19917;-66
2021/09/09 15:42:09;;;;;;;;;;;34.80;48.00;;;;;;8293414;28;19957;-66
2021/09/09 15:46:09;;;;;;;;;;;34.70;48.00;;;;;;8275546;28;19975;-66
2021/09/09 15:50:10;;;;;;;;;;;34.60;49.70;;;;;;8293641;28;20028;-66
2021/09/09 15:54:10;;;;;;;;;;;33.80;49.70;;;;;;8293835;28;19964;-66
2021/09/09 15:58:12;;;;;;;;;;;33.80;50.70;;;;;;8294600;28;19917;-66
2021/09/09 16:02:12;;;;;;;;;;;33.60;51.60;;;;;;8293864;28;19909;-66
2021/09/09 16:06:13;;;;;;;;;;;33.90;52.60;;;;;;8293273;28;20040;-66
2021/09/09 16:10:13;;;;;;;;;;;34.20;53.10;;;;;;8294152;28;20566;-66
2021/09/09 16:14:15;;;;;;;;;;;34.80;52.30;;;;;;8276046;28;20008;-66
2021/09/09 16:18:16;;;;;;;;;;;34.70;51.30;;;;;;8273173;28;20381;-66
2021/09/09 16:22:16;;;;;;;;;;;33.70;51.50;;;;;;8284373;28;19955;-66
2021/09/09 16:26:17;;;;;;;;;;;33.70;53.10;;;;;;8293088;28;19913;-66
2021/09/09 16:30:17;;;;;;;;;;;33.80;53.60;;;;;;8274126;28;20007;-66
2021/09/09 16:34:18;;;;;;;;;;;34.70;51.90;;;;;;8292692;28;19916;-66
2021/09/09 16:38:19;;;;;;;;;;;34.20;52.20;;;;;;8274588;28;19913;-67
2021/09/09 16:42:19;;;;;;;;;;;33.80;54.20;;;;;;8274220;28;19910;-67
2021/09/09 16:46:20;;;;;;;;;;;33.10;56.10;;;;;;8281603;28;19963;-66
2021/09/09 16:50:20;;;;;;;;;;;31.70;58.50;;;;;;8290450;28;19917;-66
2021/09/09 16:54:21;;;;;;;;;;;29.60;64.40;;;;;;8269927;28;19913;-66
2021/09/09 16:58:22;;;;;;;;;;;27.80;71.20;;;;;;8272698;28;19957;-66
2021/09/09 17:02:22;;;;;;;;;;;26.50;76.30;;;;;;8280282;28;19997;-66
2021/09/09 17:06:23;;;;;;;;;;;25.40;81.30;;;;;;8260153;28;20389;-66
2021/09/09 17:10:24;;;;;;;;;;;24.70;86.00;;;;;;8261910;28;19913;-67
2021/09/09 17:14:24;;;;;;;;;;;24.20;90.00;;;;;;8278317;28;19921;-66
2021/09/09 17:18:25;;;;;;;;;;;23.80;91.70;;;;;;8266187;28;19921;-66
2021/09/09 17:22:25;;;;;;;;;;;23.50;93.20;;;;;;8273631;28;19968;-66
2021/09/09 17:26:26;;;;;;;;;;;23.10;95.50;;;;;;8287908;28;19913;-66
2021/09/09 17:30:27;;;;;;;;;;;22.80;97.80;;;;;;8286691;28;19924;-66
2021/09/09 17:34:27;;;;;;;;;;;22.50;99.90;;;;;;8290617;28;19913;-65
2021/09/09 17:38:28;;;;;;;;;;;22.30;99.90;;;;;;8292373;28;19963;-64
2021/09/09 17:42:28;;;;;;;;;;;22.00;99.90;;;;;;8293393;28;19919;-64
2021/09/09 17:46:29;;;;;;;;;;;21.70;99.90;;;;;;8293793;28;19921;-65
2021/09/09 17:50:29;;;;;;;;;;;21.40;99.90;;;;;;8292721;28;20349;-64
2021/09/09 17:54:29;;;;;;;;;;;21.30;99.90;;;;;;8293472;28;19959;-64
2021/09/09 17:58:30;;;;;;;;;;;21.30;99.90;;;;;;8293141;28;19917;-64
2021/09/09 18:02:31;;;;;;;;;;;21.10;99.90;;;;;;8288403;28;19921;-63
2021/09/09 18:06:32;;;;;;;;;;;21.10;99.90;;;;;;8274454;28;19913;-65
2021/09/09 18:10:33;;;;;;;;;;;20.90;99.90;;;;;;8291158;28;19981;-64
2021/09/09 18:14:34;;;;;;;;;;;20.50;99.90;;;;;;8272917;28;19910;-63
2021/09/09 18:18:34;;;;;;;;;;;20.40;99.90;;;;;;8289100;28;20377;-64
2021/09/09 18:22:35;;;;;;;;;;;20.30;99.90;;;;;;8290968;28;20012;-64
2021/09/09 18:26:35;;;;;;;;;;;19.90;99.90;;;;;;8292427;28;19945;-64
2021/09/09 18:30:36;;;;;;;;;;;19.60;99.90;;;;;;8274386;28;19909;-63
2021/09/09 18:34:36;;;;;;;;;;;19.50;99.90;;;;;;8274005;28;19936;-64
2021/09/09 18:38:39;;;;;;;;;;;19.40;99.90;;;;;;8287449;28;19921;-64
2021/09/09 18:42:40;;;;;;;;;;;19.20;99.90;;;;;;8288794;28;19998;-64
2021/09/09 18:46:40;;;;;;;;;;;19.20;99.90;;;;;;8290454;28;20541;-63
2021/09/09 18:50:41;;;;;;;;;;;19.10;99.90;;;;;;8291039;28;19968;-64
2021/09/09 18:54:41;;;;;;;;;;;19.10;99.90;;;;;;8290530;28;19925;-64
2021/09/09 18:58:42;;;;;;;;;;;19.10;99.90;;;;;;8290816;28;20012;-64
2021/09/09 19:02:42;;;;;;;;;;;19.00;99.90;;;;;;8273197;28;19910;-64
2021/09/09 19:06:43;;;;;;;;;;;18.60;99.90;;;;;;8290255;28;19909;-63
2021/09/09 19:10:43;;;;;;;;;;;18.80;99.90;;;;;;8291148;28;20370;-64
2021/09/09 19:14:44;;;;;;;;;;;18.70;99.90;;;;;;8272780;28;19920;-65
2021/09/09 19:18:44;;;;;;;;;;;18.40;99.90;;;;;;8289862;28;19917;-64
2021/09/09 19:22:45;;;;;;;;;;;18.30;99.90;;;;;;8290842;28;19959;-64
2021/09/09 19:26:49;;;;;;;;;;;18.50;99.90;;;;;;8290303;28;19949;-64
2021/09/09 19:30:49;;;;;;;;;;;18.30;99.90;;;;;;8289912;28;19914;-64
2021/09/09 19:34:55;;;;;;;;;;;18.10;99.90;;;;;;8289690;28;19913;-64
2021/09/09 19:38:55;;;;;;;;;;;18.10;99.90;;;;;;8288217;28;20000;-64
2021/09/09 19:42:57;;;;;;;;;;;18.20;99.90;;;;;;8289887;28;19925;-64
2021/09/09 19:46:58;;;;;;;;;;;18.20;99.90;;;;;;8287725;28;19936;-63
2021/09/09 19:50:58;;;;;;;;;;;17.90;99.90;;;;;;8291016;28;20365;-64
2021/09/09 19:54:59;;;;;;;;;;;17.90;99.90;;;;;;8290164;28;19921;-65
2021/09/09 19:59:00;;;;;;;;;;;17.90;99.90;;;;;;8289884;28;19917;-64
2021/09/09 20:03:00;;;;;;;;;;;17.70;99.90;;;;;;8291036;28;20377;-64
2021/09/09 20:07:01;;;;;;;;;;;17.90;99.90;;;;;;8289797;28;19924;-63
2021/09/09 20:11:01;;;;;;;;;;;18.10;99.90;;;;;;8289709;28;19980;-64
2021/09/09 20:15:02;;;;;;;;;;;18.00;99.90;;;;;;8284185;28;20007;-65
2021/09/09 20:19:03;;;;;;;;;;;17.90;99.90;;;;;;8271282;28;19967;-64
2021/09/09 20:23:03;;;;;;;;;;;17.90;99.90;;;;;;8288425;28;20377;-64
2021/09/09 20:27:04;;;;;;;;;;;17.90;99.90;;;;;;8289325;28;19905;-63
2021/09/09 20:31:04;;;;;;;;;;;17.80;99.90;;;;;;8288365;28;20423;-63
2021/09/09 20:35:05;;;;;;;;;;;17.60;99.90;;;;;;8290068;28;20308;-64
2021/09/09 20:39:06;;;;;;;;;;;17.50;99.90;;;;;;8290004;28;19963;-64
2021/09/09 20:43:06;;;;;;;;;;;17.30;99.90;;;;;;8288286;28;19920;-64
2021/09/09 20:47:07;;;;;;;;;;;17.10;99.90;;;;;;8290452;28;19906;-64
2021/09/09 20:51:07;;;;;;;;;;;16.90;99.90;;;;;;8292441;28;20373;-64
2021/09/09 20:55:08;;;;;;;;;;;16.90;99.90;;;;;;8291979;28;19923;-64
2021/09/09 20:59:08;;;;;;;;;;;17.00;99.90;;;;;;8291939;28;20033;-63
2021/09/09 21:03:09;;;;;;;;;;;16.90;99.90;;;;;;8275117;28;19912;-63
2021/09/09 21:07:10;;;;;;;;;;;16.80;99.90;;;;;;8291968;28;19909;-63
2021/09/09 21:11:10;;;;;;;;;;;16.60;99.90;;;;;;8290537;28;19906;-63
2021/09/09 21:15:11;;;;;;;;;;;16.70;99.90;;;;;;8290256;28;19905;-63
2021/09/09 21:19:11;;;;;;;;;;;16.50;99.90;;;;;;8290361;28;19913;-63
2021/09/09 21:23:12;;;;;;;;;;;16.30;99.90;;;;;;8291360;28;19905;-63
2021/09/09 21:27:12;;;;;;;;;;;16.20;99.90;;;;;;8293320;28;19941;-63
2021/09/09 21:31:13;;;;;;;;;;;16.10;99.90;;;;;;8275970;28;19952;-63
2021/09/09 21:35:13;;;;;;;;;;;16.40;99.90;;;;;;8292886;28;19909;-63
2021/09/09 21:39:14;;;;;;;;;;;16.20;99.90;;;;;;8292630;28;19909;-63
2021/09/09 21:43:14;;;;;;;;;;;16.10;99.90;;;;;;8292185;28;19910;-63
2021/09/09 21:47:15;;;;;;;;;;;16.00;99.90;;;;;;8291750;28;19910;-63
2021/09/09 21:51:15;;;;;;;;;;;16.10;99.90;;;;;;8295356;28;20397;-65
2021/09/09 21:55:16;;;;;;;;;;;15.90;99.90;;;;;;8297111;28;19967;-64
2021/09/09 21:59:16;;;;;;;;;;;15.90;99.90;;;;;;8298354;28;19981;-64
2021/09/09 22:03:17;;;;;;;;;;;15.60;99.90;;;;;;8297874;28;19996;-64
2021/09/09 22:07:17;;;;;;;;;;;15.50;99.90;;;;;;8298054;28;19932;-65
2021/09/09 22:11:18;;;;;;;;;;;15.30;99.90;;;;;;8298063;28;20369;-65
2021/09/09 22:15:19;;;;;;;;;;;15.30;99.90;;;;;;8280096;28;19951;-65
2021/09/09 22:19:19;;;;;;;;;;;15.20;99.90;;;;;;8297164;28;19963;-65
2021/09/09 22:23:19;;;;;;;;;;;15.20;99.90;;;;;;8297638;28;20350;-65
2021/09/09 22:27:20;;;;;;;;;;;15.40;99.90;;;;;;8297329;28;20504;-65
2021/09/09 22:31:20;;;;;;;;;;;15.40;99.90;;;;;;8297518;28;19913;-65
2021/09/09 22:35:21;;;;;;;;;;;15.20;99.90;;;;;;8279448;28;19952;-65
2021/09/09 22:39:22;;;;;;;;;;;15.10;99.90;;;;;;8297234;28;20377;-65
2021/09/09 22:43:22;;;;;;;;;;;15.10;99.90;;;;;;8297000;28;20301;-65
2021/09/09 22:47:23;;;;;;;;;;;15.20;99.90;;;;;;8279225;28;19905;-65
2021/09/09 22:51:23;;;;;;;;;;;15.10;99.90;;;;;;8297179;28;20289;-64
2021/09/09 22:55:24;;;;;;;;;;;15.20;99.90;;;;;;8278725;28;20396;-65
2021/09/09 22:59:24;;;;;;;;;;;14.80;99.90;;;;;;8296498;28;19955;-65
2021/09/09 23:03:25;;;;;;;;;;;14.60;99.90;;;;;;8295747;28;19952;-65
2021/09/09 23:07:25;;;;;;;;;;;14.60;99.90;;;;;;8296130;28;20432;-65
2021/09/09 23:11:26;;;;;;;;;;;14.60;99.90;;;;;;8296424;28;19905;-64
2021/09/09 23:15:26;;;;;;;;;;;14.60;99.90;;;;;;8295803;28;20289;-64
2021/09/09 23:19:27;;;;;;;;;;;14.70;99.90;;;;;;8295242;28;20473;-64
2021/09/09 23:23:27;;;;;;;;;;;14.50;99.90;;;;;;8295633;28;19917;-64